createdAt,value
2023-03-08T00:00:07.970Z,1.50
2023-03-08T00:02:17.046Z,1.60
2023-03-08T00:04:25.767Z,2.30
2023-03-08T00:06:34.576Z,1.90
2023-03-08T00:08:43.530Z,1.27
2023-03-08T00:10:52.135Z,1.20
2023-03-08T00:13:01.018Z,0.80
2023-03-08T00:15:11.654Z,2.20
2023-03-08T00:17:21.005Z,1.23
2023-03-08T00:19:30.003Z,1.73
2023-03-08T00:21:39.153Z,1.30
2023-03-08T00:23:48.177Z,1.67
2023-03-08T00:25:57.473Z,1.37
2023-03-08T00:28:06.345Z,1.43
2023-03-08T00:30:16.976Z,1.33
2023-03-08T00:32:27.802Z,1.53
2023-03-08T00:34:36.645Z,1.57
2023-03-08T00:36:46.448Z,1.43
2023-03-08T00:38:55.876Z,2.00
2023-03-08T00:41:04.994Z,1.73
2023-03-08T00:43:13.998Z,1.30
2023-03-08T00:45:24.593Z,1.27
2023-03-08T00:47:35.477Z,1.33
2023-03-08T00:49:44.286Z,0.97
2023-03-08T00:51:53.608Z,1.23
2023-03-08T00:54:02.142Z,1.37
2023-03-08T00:56:11.197Z,1.03
2023-03-08T00:58:20.396Z,0.60
2023-03-08T01:00:31.733Z,0.93
2023-03-08T01:02:41.322Z,1.27
2023-03-08T01:04:50.414Z,1.13
2023-03-08T01:06:59.056Z,1.33
2023-03-08T01:09:08.479Z,0.87
2023-03-08T01:11:18.151Z,1.13
2023-03-08T01:13:27.361Z,0.80
2023-03-08T01:15:39.249Z,1.17
2023-03-08T01:17:48.536Z,1.10
2023-03-08T01:19:58.066Z,1.10
2023-03-08T01:22:07.135Z,1.10
2023-03-08T01:24:15.955Z,1.40
2023-03-08T01:26:26.505Z,1.40
2023-03-08T01:28:35.674Z,1.50
2023-03-08T01:30:45.766Z,0.90
2023-03-08T01:32:55.153Z,0.80
2023-03-08T01:35:05.966Z,1.10
2023-03-08T01:37:15.082Z,1.30
2023-03-08T01:39:23.753Z,1.20
2023-03-08T01:41:33.734Z,1.17
2023-03-08T01:43:42.909Z,1.37
2023-03-08T01:46:06.044Z,1.10
2023-03-08T01:48:15.357Z,1.20
2023-03-08T01:50:24.256Z,1.00
2023-03-08T01:52:35.909Z,0.83
2023-03-08T01:54:47.383Z,0.90
2023-03-08T01:57:02.605Z,1.70
2023-03-08T01:59:11.319Z,1.50
2023-03-08T02:01:22.699Z,0.90
2023-03-08T02:03:32.031Z,1.17
2023-03-08T02:05:42.907Z,0.90
2023-03-08T02:07:51.998Z,1.10
2023-03-08T02:10:01.108Z,1.30
2023-03-08T02:12:13.015Z,1.20
2023-03-08T02:14:22.273Z,1.00
2023-03-08T02:16:32.970Z,0.90
2023-03-08T02:18:51.055Z,0.80
2023-03-08T02:20:59.893Z,1.13
2023-03-08T02:23:14.626Z,0.70
2023-03-08T02:25:24.806Z,1.37
2023-03-08T02:27:33.772Z,1.13
2023-03-08T02:29:42.522Z,1.07
2023-03-08T02:31:51.346Z,0.80
2023-03-08T02:34:00.241Z,0.90
2023-03-08T02:36:10.002Z,1.57
2023-03-08T02:38:21.234Z,1.40
2023-03-08T02:40:30.244Z,0.70
2023-03-08T02:42:39.793Z,1.37
2023-03-08T02:44:48.624Z,1.30
2023-03-08T02:46:57.703Z,1.17
2023-03-08T02:49:06.286Z,1.03
2023-03-08T02:51:15.498Z,0.97
2023-03-08T02:53:26.450Z,1.10
2023-03-08T02:55:36.960Z,1.03
2023-03-08T02:57:45.875Z,1.27
2023-03-08T02:59:54.493Z,1.07
2023-03-08T03:02:03.791Z,0.50
2023-03-08T03:04:13.033Z,1.10
2023-03-08T03:06:22.728Z,1.13
2023-03-08T03:08:33.547Z,1.47
2023-03-08T03:10:43.298Z,0.97
2023-03-08T03:12:51.826Z,1.00
2023-03-08T03:15:00.783Z,1.23
2023-03-08T03:17:09.384Z,0.97
2023-03-08T03:19:18.273Z,1.07
2023-03-08T03:21:27.468Z,1.00
2023-03-08T03:23:38.187Z,1.30
2023-03-08T03:25:46.821Z,0.80
2023-03-08T03:27:56.580Z,0.70
2023-03-08T03:30:06.633Z,0.90
2023-03-08T03:32:15.629Z,1.20
2023-03-08T03:34:24.720Z,0.87
2023-03-08T03:36:34.656Z,1.07
2023-03-08T03:38:45.703Z,0.70
2023-03-08T03:41:01.813Z,1.20
2023-03-08T03:43:10.968Z,1.37
2023-03-08T03:45:20.261Z,0.63
2023-03-08T03:47:28.967Z,1.13
2023-03-08T03:49:37.555Z,0.50
2023-03-08T03:51:46.576Z,1.27
2023-03-08T03:53:58.794Z,1.37
2023-03-08T03:56:08.742Z,1.57
2023-03-08T03:58:17.568Z,1.40
2023-03-08T04:00:26.166Z,1.10
2023-03-08T04:02:35.252Z,0.97
2023-03-08T04:04:44.011Z,1.00
2023-03-08T04:06:52.912Z,0.37
2023-03-08T04:09:04.703Z,1.00
2023-03-08T04:11:14.179Z,1.30
2023-03-08T04:13:23.224Z,1.03
2023-03-08T04:15:31.995Z,0.97
2023-03-08T04:17:40.745Z,0.87
2023-03-08T04:19:50.753Z,0.73
2023-03-08T04:21:59.775Z,1.20
2023-03-08T04:24:11.043Z,0.97
2023-03-08T04:26:20.268Z,0.93
2023-03-08T04:28:29.585Z,0.40
2023-03-08T04:30:38.413Z,1.20
2023-03-08T04:32:47.291Z,1.13
2023-03-08T04:34:56.060Z,0.77
2023-03-08T04:37:04.917Z,1.10
2023-03-08T04:39:15.552Z,1.20
2023-03-08T04:41:24.765Z,1.03
2023-03-08T04:43:34.370Z,1.00
2023-03-08T04:45:43.018Z,1.17
2023-03-08T04:47:51.825Z,1.27
2023-03-08T04:50:00.961Z,0.97
2023-03-08T04:52:10.878Z,0.53
2023-03-08T04:54:21.384Z,0.87
2023-03-08T04:56:30.081Z,0.80
2023-03-08T04:58:39.669Z,0.77
2023-03-08T05:00:48.610Z,1.23
2023-03-08T05:02:57.287Z,0.53
2023-03-08T05:05:06.789Z,1.13
2023-03-08T05:07:16.171Z,1.03
2023-03-08T05:09:26.430Z,1.10
2023-03-08T05:11:35.428Z,1.10
2023-03-08T05:13:44.397Z,1.03
2023-03-08T05:15:53.257Z,0.73
2023-03-08T05:18:01.875Z,0.80
2023-03-08T05:20:11.333Z,1.10
2023-03-08T05:22:20.701Z,0.30
2023-03-08T05:24:31.417Z,1.17
2023-03-08T05:26:40.926Z,0.73
2023-03-08T05:28:49.551Z,0.97
2023-03-08T05:31:02.785Z,1.10
2023-03-08T05:33:11.369Z,0.73
2023-03-08T05:35:20.228Z,1.10
2023-03-08T05:37:29.010Z,1.20
2023-03-08T05:39:39.242Z,1.00
2023-03-08T05:41:48.305Z,0.67
2023-03-08T05:43:59.094Z,1.10
2023-03-08T05:46:09.316Z,0.70
2023-03-08T05:48:18.490Z,0.70
2023-03-08T05:50:27.968Z,0.67
2023-03-08T05:52:36.846Z,0.67
2023-03-08T05:54:47.512Z,0.93
2023-03-08T05:56:56.150Z,0.93
2023-03-08T05:59:05.295Z,1.33
2023-03-08T06:01:15.024Z,0.90
2023-03-08T06:03:23.916Z,0.80
2023-03-08T06:05:33.547Z,1.00
2023-03-08T06:07:44.002Z,0.90
2023-03-08T06:09:56.408Z,0.87
2023-03-08T06:12:05.153Z,0.97
2023-03-08T06:14:13.850Z,1.03
2023-03-08T06:16:22.487Z,1.03
2023-03-08T06:18:31.568Z,0.90
2023-03-08T06:20:40.536Z,1.37
2023-03-08T06:22:49.630Z,0.80
2023-03-08T06:25:00.495Z,0.93
2023-03-08T06:27:09.578Z,0.90
2023-03-08T06:29:18.313Z,0.90
2023-03-08T06:31:27.630Z,1.10
2023-03-08T06:33:37.462Z,0.97
2023-03-08T06:35:46.636Z,0.50
2023-03-08T06:37:55.323Z,0.90
2023-03-08T06:40:09.381Z,1.27
2023-03-08T06:42:19.877Z,0.80
2023-03-08T06:44:31.027Z,0.73
2023-03-08T06:46:40.075Z,0.70
2023-03-08T06:48:49.322Z,1.37
2023-03-08T06:50:58.297Z,0.97
2023-03-08T06:53:07.373Z,1.00
2023-03-08T06:55:17.928Z,0.93
2023-03-08T06:57:26.423Z,0.90
2023-03-08T06:59:35.164Z,1.00
2023-03-08T07:01:44.381Z,1.30
2023-03-08T07:03:53.579Z,1.20
2023-03-08T07:06:02.224Z,0.47
2023-03-08T07:08:10.959Z,1.20
2023-03-08T07:10:22.659Z,1.30
2023-03-08T07:12:32.472Z,1.40
2023-03-08T07:14:41.287Z,0.90
2023-03-08T07:16:50.041Z,1.37
2023-03-08T07:18:58.855Z,0.10
2023-03-08T07:21:07.706Z,1.60
2023-03-08T07:23:16.717Z,1.67
2023-03-08T07:25:27.214Z,1.13
2023-03-08T07:27:35.919Z,1.20
2023-03-08T07:29:44.916Z,1.20
2023-03-08T07:31:53.625Z,1.30
2023-03-08T07:34:02.640Z,1.10
2023-03-08T07:36:11.524Z,1.00
2023-03-08T07:38:20.449Z,1.00
2023-03-08T07:40:30.834Z,1.27
2023-03-08T07:42:39.781Z,1.53
2023-03-08T07:44:48.940Z,1.43
2023-03-08T07:46:58.094Z,1.23
2023-03-08T07:49:10.775Z,1.87
2023-03-08T07:51:19.753Z,1.17
2023-03-08T07:53:29.248Z,1.40
2023-03-08T07:55:40.511Z,0.77
2023-03-08T07:57:49.340Z,1.00
2023-03-08T07:59:58.414Z,0.60
2023-03-08T08:02:07.025Z,1.20
2023-03-08T08:04:15.894Z,0.63
2023-03-08T08:06:24.764Z,1.30
2023-03-08T08:08:33.921Z,0.70
2023-03-08T08:10:44.838Z,0.63
2023-03-08T08:12:53.505Z,1.00
2023-03-08T08:15:02.490Z,1.30
2023-03-08T08:17:12.275Z,0.90
2023-03-08T08:19:22.458Z,1.07
2023-03-08T08:21:31.617Z,0.93
2023-03-08T08:23:41.629Z,0.97
2023-03-08T08:25:52.059Z,1.30
2023-03-08T08:28:01.128Z,1.10
2023-03-08T08:30:11.571Z,0.87
2023-03-08T08:32:20.648Z,0.80
2023-03-08T08:34:32.119Z,0.80
2023-03-08T08:36:41.370Z,0.90
2023-03-08T08:38:50.358Z,0.90
2023-03-08T08:41:02.960Z,0.80
2023-03-08T08:43:11.605Z,0.87
2023-03-08T08:45:20.580Z,1.23
2023-03-08T08:47:31.165Z,1.10
2023-03-08T08:49:39.947Z,0.87
2023-03-08T08:51:48.957Z,1.07
2023-03-08T08:53:57.807Z,0.87
2023-03-08T08:56:26.082Z,1.00
2023-03-08T08:58:37.077Z,1.47
2023-03-08T09:00:45.855Z,1.17
2023-03-08T09:02:54.694Z,1.60
2023-03-08T09:05:03.991Z,0.93
2023-03-08T09:07:12.665Z,1.50
2023-03-08T09:09:22.274Z,1.60
2023-03-08T09:11:34.628Z,1.30
2023-03-08T09:13:44.829Z,1.10
2023-03-08T09:15:53.581Z,0.77
2023-03-08T09:18:02.287Z,1.60
2023-03-08T09:20:11.815Z,1.43
2023-03-08T09:22:21.278Z,1.10
2023-03-08T09:24:30.450Z,1.10
2023-03-08T09:26:40.994Z,1.57
2023-03-08T09:28:49.906Z,1.20
2023-03-08T09:30:59.433Z,0.80
2023-03-08T09:33:07.962Z,1.00
2023-03-08T09:35:17.287Z,1.30
2023-03-08T09:37:26.061Z,0.80
2023-03-08T09:39:35.117Z,1.20
2023-03-08T09:42:02.298Z,1.10
2023-03-08T09:44:26.129Z,1.40
2023-03-08T09:46:37.303Z,1.20
2023-03-08T09:48:49.425Z,1.00
2023-03-08T09:51:00.624Z,1.30
2023-03-08T09:53:16.231Z,0.77
2023-03-08T09:55:30.758Z,1.40
2023-03-08T09:57:44.751Z,1.20
2023-03-08T09:59:55.943Z,1.60
2023-03-08T10:02:06.912Z,1.10
2023-03-08T10:04:18.105Z,1.17
2023-03-08T10:06:31.135Z,0.87
2023-03-08T10:08:45.542Z,1.50
2023-03-08T10:10:57.895Z,1.30
2023-03-08T10:13:26.386Z,1.33
2023-03-08T10:15:40.670Z,1.20
2023-03-08T10:17:52.691Z,1.13
2023-03-08T10:20:07.101Z,1.13
2023-03-08T10:22:18.932Z,1.53
2023-03-08T10:24:30.596Z,1.83
2023-03-08T10:26:43.832Z,0.90
2023-03-08T10:28:54.093Z,1.60
2023-03-08T10:31:04.703Z,1.10
2023-03-08T10:33:14.720Z,1.47
2023-03-08T10:35:33.212Z,1.23
2023-03-08T10:37:41.888Z,1.33
2023-03-08T10:39:53.608Z,1.53
2023-03-08T10:42:04.336Z,1.23
2023-03-08T10:44:17.403Z,1.40
2023-03-08T10:46:28.482Z,1.17
2023-03-08T10:48:37.687Z,1.03
2023-03-08T10:50:46.345Z,1.20
2023-03-08T10:52:55.345Z,1.50
2023-03-08T10:55:04.937Z,1.43
2023-03-08T10:57:20.136Z,1.93
2023-03-08T10:59:32.687Z,1.57
2023-03-08T11:01:50.299Z,1.07
2023-03-08T11:04:03.480Z,0.73
2023-03-08T11:06:15.512Z,1.10
2023-03-08T11:08:25.925Z,1.30
2023-03-08T11:10:34.997Z,1.50
2023-03-08T11:12:44.279Z,1.13
2023-03-08T11:14:54.960Z,1.13
2023-03-08T11:17:16.036Z,1.30
2023-03-08T11:19:32.056Z,1.00
2023-03-08T11:21:49.089Z,1.53
2023-03-08T11:24:02.541Z,1.20
2023-03-08T11:26:16.894Z,1.30
2023-03-08T11:28:37.426Z,1.00
2023-03-08T11:30:55.422Z,1.20
2023-03-08T11:33:14.085Z,1.47
2023-03-08T11:35:26.445Z,0.97
2023-03-08T11:37:39.203Z,1.20
2023-03-08T11:39:49.890Z,0.70
2023-03-08T11:42:02.258Z,1.30
2023-03-08T11:44:17.919Z,1.10
2023-03-08T11:46:31.248Z,1.20
2023-03-08T11:48:54.448Z,1.10
2023-03-08T11:51:05.244Z,1.20
2023-03-08T11:53:18.987Z,1.17
2023-03-08T11:55:47.569Z,1.20
2023-03-08T11:57:58.005Z,0.93
2023-03-08T12:00:11.727Z,1.00
2023-03-08T12:02:23.555Z,1.23
2023-03-08T12:04:34.752Z,1.10
2023-03-08T12:06:44.951Z,1.13
2023-03-08T12:08:57.713Z,1.40
2023-03-08T12:11:08.730Z,0.97
2023-03-08T12:13:20.800Z,0.93
2023-03-08T12:15:32.007Z,0.83
2023-03-08T12:17:44.158Z,1.00
2023-03-08T12:19:54.011Z,1.03
2023-03-08T12:22:08.453Z,1.00
2023-03-08T12:24:29.137Z,0.63
2023-03-08T12:26:39.469Z,1.10
2023-03-08T12:28:50.460Z,1.23
2023-03-08T12:31:04.090Z,0.70
2023-03-08T12:33:15.950Z,1.20
2023-03-08T12:35:29.770Z,1.30
2023-03-08T12:37:39.292Z,0.90
2023-03-08T12:39:57.121Z,1.13
2023-03-08T12:42:16.192Z,1.00
2023-03-08T12:44:27.247Z,0.50
2023-03-08T12:47:01.902Z,1.20
2023-03-08T12:49:21.113Z,1.10
2023-03-08T12:51:34.374Z,1.40
2023-03-08T12:53:45.027Z,1.03
2023-03-08T12:56:04.750Z,1.63
2023-03-08T12:58:18.962Z,2.50
2023-03-08T13:00:29.861Z,1.50
2023-03-08T13:02:39.193Z,0.80
2023-03-08T13:04:49.828Z,1.00
2023-03-08T13:07:13.755Z,1.20
2023-03-08T13:09:24.846Z,1.10
2023-03-08T13:11:40.411Z,1.37
2023-03-08T13:13:54.044Z,1.50
2023-03-08T13:16:20.896Z,1.20
2023-03-08T13:18:29.612Z,1.37
2023-03-08T13:21:01.366Z,1.40
2023-03-08T13:23:12.754Z,1.13
2023-03-08T13:25:28.310Z,0.93
2023-03-08T13:27:41.731Z,1.20
2023-03-08T13:29:51.226Z,0.50
2023-03-08T13:32:00.749Z,1.10
2023-03-08T13:34:24.697Z,0.93
2023-03-08T13:36:35.414Z,1.10
2023-03-08T13:38:44.012Z,1.20
2023-03-08T13:40:53.832Z,2.40
2023-03-08T13:43:05.264Z,1.37
2023-03-08T13:45:18.637Z,1.03
2023-03-08T13:47:28.761Z,1.00
2023-03-08T13:49:39.690Z,1.80
2023-03-08T13:51:52.260Z,1.00
2023-03-08T13:54:01.067Z,1.30
2023-03-08T13:56:10.304Z,1.70
2023-03-08T13:58:24.294Z,1.20
2023-03-08T14:00:34.128Z,1.30
2023-03-08T14:02:47.935Z,1.80
2023-03-08T14:04:57.440Z,1.10
2023-03-08T14:07:21.871Z,1.53
2023-03-08T14:09:31.161Z,1.33
2023-03-08T14:11:41.561Z,1.07
2023-03-08T14:13:51.923Z,1.10
2023-03-08T14:16:01.991Z,1.30
2023-03-08T14:18:18.969Z,1.27
2023-03-08T14:20:27.751Z,1.60
2023-03-08T14:22:40.573Z,1.50
2023-03-08T14:24:51.489Z,0.93
2023-03-08T14:27:01.673Z,1.40
2023-03-08T14:29:46.856Z,1.30
2023-03-08T14:32:32.066Z,1.17
2023-03-08T14:35:17.338Z,1.90
2023-03-08T14:38:02.807Z,0.87
2023-03-08T14:40:47.848Z,1.47
2023-03-08T14:43:33.114Z,1.03
2023-03-08T14:46:18.279Z,1.27
2023-03-08T14:49:03.733Z,1.17
2023-03-08T14:51:49.250Z,2.03
2023-03-08T14:54:34.122Z,1.43
2023-03-08T14:57:19.132Z,1.33
2023-03-08T15:00:04.217Z,1.30
2023-03-08T15:02:49.073Z,1.50
2023-03-08T15:05:33.598Z,1.30
2023-03-08T15:08:19.123Z,1.43
2023-03-08T15:11:04.010Z,1.33
2023-03-08T15:13:49.198Z,1.00
2023-03-08T15:16:34.648Z,1.30
2023-03-08T15:19:19.473Z,1.70
2023-03-08T15:22:04.501Z,1.30
2023-03-08T15:24:49.235Z,0.97
2023-03-08T15:27:34.782Z,1.27
2023-03-08T15:30:19.823Z,1.23
2023-03-08T15:33:04.925Z,1.10
2023-03-08T15:35:49.939Z,1.53
2023-03-08T15:38:35.008Z,1.50
2023-03-08T15:41:20.170Z,1.10
2023-03-08T15:44:05.268Z,1.60
2023-03-08T15:46:52.726Z,1.67
2023-03-08T15:49:37.803Z,1.60
2023-03-08T15:52:28.156Z,1.20
2023-03-08T15:55:14.941Z,1.17
2023-03-08T15:57:59.795Z,1.00
2023-03-08T16:00:44.559Z,1.57
2023-03-08T16:03:31.317Z,1.50
2023-03-08T16:06:16.298Z,1.50
2023-03-08T16:09:01.097Z,1.30
2023-03-08T16:11:48.204Z,1.33
2023-03-08T16:14:33.413Z,1.37
2023-03-08T16:17:18.622Z,1.47
2023-03-08T16:20:03.690Z,1.23
2023-03-08T16:22:48.909Z,1.47
2023-03-08T16:25:34.368Z,1.53
2023-03-08T16:28:19.549Z,1.60
2023-03-08T16:31:04.800Z,1.87
2023-03-08T16:33:49.474Z,1.83
2023-03-08T16:36:35.036Z,1.97
2023-03-08T16:39:20.007Z,2.10
2023-03-08T16:42:04.987Z,2.33
2023-03-08T16:44:49.945Z,2.20
2023-03-08T16:47:34.866Z,2.83
2023-03-08T16:50:19.734Z,1.80
2023-03-08T16:53:04.694Z,2.50
2023-03-08T16:55:50.326Z,2.40
2023-03-08T16:58:35.328Z,2.00
2023-03-08T17:01:20.497Z,1.97
2023-03-08T17:04:05.488Z,2.03
2023-03-08T17:06:50.700Z,2.10
2023-03-08T17:09:35.822Z,1.90
2023-03-08T17:12:20.868Z,1.70
2023-03-08T17:15:06.247Z,2.00
2023-03-08T17:17:51.689Z,2.23
2023-03-08T17:20:36.513Z,2.80
2023-03-08T17:23:21.672Z,2.30
2023-03-08T17:26:06.889Z,2.37
2023-03-08T17:28:52.099Z,3.10
2023-03-08T17:31:38.084Z,2.50
2023-03-08T17:34:24.542Z,2.00
2023-03-08T17:37:09.289Z,2.00
2023-03-08T17:39:54.159Z,2.07
2023-03-08T17:42:39.078Z,2.73
2023-03-08T17:45:24.143Z,2.63
2023-03-08T17:48:09.053Z,1.80
2023-03-08T17:50:54.062Z,1.97
2023-03-08T17:53:39.525Z,2.67
2023-03-08T17:56:24.467Z,3.03
2023-03-08T17:59:09.490Z,2.30
2023-03-08T18:01:54.416Z,3.00
2023-03-08T18:04:39.394Z,2.17
2023-03-08T18:07:24.175Z,2.37
2023-03-08T18:10:08.881Z,2.13
2023-03-08T18:12:53.685Z,1.50
2023-03-08T18:15:38.369Z,1.70
2023-03-08T18:18:23.625Z,2.57
2023-03-08T18:21:13.833Z,1.70
2023-03-08T18:23:58.912Z,2.03
2023-03-08T18:26:44.046Z,1.80
2023-03-08T18:29:28.980Z,1.70
2023-03-08T18:32:13.885Z,1.40
2023-03-08T18:34:58.647Z,1.23
2023-03-08T18:37:43.411Z,1.50
2023-03-08T18:40:28.246Z,1.70
2023-03-08T18:43:13.086Z,0.97
2023-03-08T18:45:58.016Z,1.20
2023-03-08T18:48:43.064Z,1.40
2023-03-08T18:51:28.180Z,1.30
2023-03-08T18:54:13.378Z,1.00
2023-03-08T18:56:59.248Z,1.37
2023-03-08T18:59:44.179Z,1.60
2023-03-08T19:02:29.200Z,1.40
2023-03-08T19:05:14.646Z,0.90
2023-03-08T19:07:59.425Z,1.37
2023-03-08T19:10:44.486Z,1.53
2023-03-08T19:13:29.729Z,1.50
2023-03-08T19:16:14.518Z,1.83
2023-03-08T19:18:59.600Z,3.23
2023-03-08T19:21:44.869Z,2.10
2023-03-08T19:24:29.968Z,1.93
2023-03-08T19:27:15.365Z,3.10
2023-03-08T19:30:00.369Z,1.50
2023-03-08T19:32:45.389Z,1.63
2023-03-08T19:35:30.578Z,1.93
2023-03-08T19:38:15.468Z,1.43
2023-03-08T19:41:00.679Z,1.60
2023-03-08T19:43:46.092Z,2.00
2023-03-08T19:46:31.227Z,2.03
2023-03-08T19:49:16.161Z,1.70
2023-03-08T19:52:01.011Z,2.27
2023-03-08T19:54:45.955Z,2.10
2023-03-08T19:57:31.076Z,1.50
2023-03-08T20:00:16.194Z,1.73
2023-03-08T20:03:01.339Z,1.60
2023-03-08T20:05:46.316Z,1.60
2023-03-08T20:08:31.373Z,1.33
2023-03-08T20:11:16.021Z,1.50
2023-03-08T20:14:01.733Z,1.53
2023-03-08T20:16:46.777Z,1.23
2023-03-08T20:19:32.058Z,1.50
2023-03-08T20:22:17.181Z,1.43
2023-03-08T20:25:01.961Z,1.77
2023-03-08T20:27:47.336Z,1.43
2023-03-08T20:30:32.128Z,2.33
2023-03-08T20:33:17.687Z,1.70
2023-03-08T20:36:02.571Z,2.10
2023-03-08T20:38:47.785Z,1.80
2023-03-08T20:41:33.442Z,1.00
2023-03-08T20:44:18.345Z,1.70
2023-03-08T20:47:03.476Z,1.77
2023-03-08T20:49:48.699Z,1.00
2023-03-08T20:52:33.891Z,1.97
2023-03-08T20:55:18.971Z,1.97
2023-03-08T20:58:04.103Z,1.20
2023-03-08T21:00:49.319Z,2.40
2023-03-08T21:03:34.534Z,2.00
2023-03-08T21:06:19.949Z,1.93
2023-03-08T21:09:04.654Z,1.80
2023-03-08T21:11:49.639Z,1.70
2023-03-08T21:14:34.626Z,1.13
2023-03-08T21:17:19.764Z,2.17
2023-03-08T21:20:04.588Z,1.87
2023-03-08T21:22:49.481Z,1.67
2023-03-08T21:25:34.541Z,2.47
2023-03-08T21:28:19.586Z,2.77
2023-03-08T21:31:04.533Z,2.30
2023-03-08T21:33:49.101Z,2.23
2023-03-08T21:36:34.167Z,2.90
2023-03-08T21:39:18.999Z,4.57
2023-03-08T21:42:04.009Z,2.53
2023-03-08T21:44:49.042Z,3.13
2023-03-08T21:47:34.079Z,2.93
2023-03-08T21:50:19.576Z,2.20
2023-03-08T21:53:04.717Z,1.90
2023-03-08T21:55:49.569Z,1.60
2023-03-08T21:58:34.518Z,1.70
2023-03-08T22:01:19.939Z,1.33
2023-03-08T22:04:04.648Z,2.10
2023-03-08T22:06:49.853Z,1.50
2023-03-08T22:09:34.907Z,1.87
2023-03-08T22:12:20.334Z,2.00
2023-03-08T22:15:05.144Z,2.40
2023-03-08T22:17:50.157Z,2.23
2023-03-08T22:20:35.683Z,2.37
2023-03-08T22:23:20.381Z,2.00
2023-03-08T22:26:05.725Z,2.07
2023-03-08T22:28:51.001Z,2.17
2023-03-08T22:31:36.275Z,1.50
2023-03-08T22:34:21.096Z,1.97
2023-03-08T22:37:06.242Z,1.90
2023-03-08T22:39:51.459Z,2.13
2023-03-08T22:42:37.006Z,1.97
2023-03-08T22:45:22.223Z,2.17
2023-03-08T22:48:07.194Z,2.00
2023-03-08T22:51:04.836Z,1.60
2023-03-08T22:53:55.495Z,2.20
2023-03-08T22:56:40.283Z,2.17
2023-03-08T22:59:25.349Z,1.60
2023-03-08T23:02:10.406Z,1.73
2023-03-08T23:04:55.465Z,1.80
2023-03-08T23:07:40.638Z,2.00
2023-03-08T23:10:25.666Z,1.93
2023-03-08T23:13:14.377Z,2.33
2023-03-08T23:16:01.634Z,1.67
2023-03-08T23:18:46.687Z,1.77
2023-03-08T23:21:32.264Z,1.93
2023-03-08T23:24:17.399Z,1.37
2023-03-08T23:27:02.507Z,1.67
2023-03-08T23:29:47.528Z,1.73
2023-03-08T23:32:32.894Z,1.87
2023-03-08T23:35:18.226Z,1.87
2023-03-08T23:38:03.361Z,2.30
2023-03-08T23:40:48.592Z,1.60
2023-03-08T23:43:33.431Z,2.00
2023-03-08T23:46:18.480Z,1.90
2023-03-08T23:49:03.267Z,1.40
2023-03-08T23:51:48.450Z,1.53
2023-03-08T23:54:33.727Z,1.57
2023-03-08T23:57:18.740Z,1.97
